sensor_id;sensor_type;location;lat;lon;timestamp;temperature;humidity
69189;DHT22;56302;52.322;5.926;2022-08-19T00:00:05;16.70;82.70
69189;DHT22;56302;52.322;5.926;2022-08-19T00:02:32;16.70;82.60
69189;DHT22;56302;52.322;5.926;2022-08-19T00:04:57;16.70;82.80
69189;DHT22;56302;52.322;5.926;2022-08-19T00:07:23;16.50;83.20
69189;DHT22;56302;52.322;5.926;2022-08-19T00:09:49;16.50;82.60
69189;DHT22;56302;52.322;5.926;2022-08-19T00:12:14;16.50;82.30
69189;DHT22;56302;52.322;5.926;2022-08-19T00:14:40;16.50;82.50
69189;DHT22;56302;52.322;5.926;2022-08-19T00:17:07;16.50;82.30
69189;DHT22;56302;52.322;5.926;2022-08-19T00:19:34;16.40;82.40
69189;DHT22;56302;52.322;5.926;2022-08-19T00:22:00;16.30;83.00
69189;DHT22;56302;52.322;5.926;2022-08-19T00:24:27;16.30;82.70
69189;DHT22;56302;52.322;5.926;2022-08-19T00:26:54;16.30;82.50
69189;DHT22;56302;52.322;5.926;2022-08-19T00:29:22;16.30;82.60
69189;DHT22;56302;52.322;5.926;2022-08-19T00:31:49;16.30;82.40
69189;DHT22;56302;52.322;5.926;2022-08-19T00:34:18;16.20;82.30
69189;DHT22;56302;52.322;5.926;2022-08-19T00:36:44;16.20;82.80
69189;DHT22;56302;52.322;5.926;2022-08-19T00:39:10;16.10;82.60
69189;DHT22;56302;52.322;5.926;2022-08-19T00:41:36;16.10;82.50
69189;DHT22;56302;52.322;5.926;2022-08-19T00:44:06;16.00;82.50
69189;DHT22;56302;52.322;5.926;2022-08-19T00:46:34;15.90;84.40
69189;DHT22;56302;52.322;5.926;2022-08-19T00:49:06;15.40;87.00
69189;DHT22;56302;52.322;5.926;2022-08-19T00:51:34;15.20;87.40
69189;DHT22;56302;52.322;5.926;2022-08-19T00:54:00;15.10;88.10
69189;DHT22;56302;52.322;5.926;2022-08-19T00:56:26;15.20;87.30
69189;DHT22;56302;52.322;5.926;2022-08-19T00:58:54;15.50;85.20
69189;DHT22;56302;52.322;5.926;2022-08-19T01:01:20;15.60;83.60
69189;DHT22;56302;52.322;5.926;2022-08-19T01:03:46;15.70;83.50
69189;DHT22;56302;52.322;5.926;2022-08-19T01:06:12;15.80;83.10
69189;DHT22;56302;52.322;5.926;2022-08-19T01:08:37;15.80;83.10
69189;DHT22;56302;52.322;5.926;2022-08-19T01:11:03;15.80;83.00
69189;DHT22;56302;52.322;5.926;2022-08-19T01:13:32;15.70;82.70
69189;DHT22;56302;52.322;5.926;2022-08-19T01:16:05;15.70;82.80
69189;DHT22;56302;52.322;5.926;2022-08-19T01:18:32;15.60;82.80
69189;DHT22;56302;52.322;5.926;2022-08-19T01:21:05;15.60;82.70
69189;DHT22;56302;52.322;5.926;2022-08-19T01:23:32;15.60;82.90
69189;DHT22;56302;52.322;5.926;2022-08-19T01:26:10;15.60;83.30
69189;DHT22;56302;52.322;5.926;2022-08-19T01:28:48;15.50;83.10
69189;DHT22;56302;52.322;5.926;2022-08-19T01:31:25;15.50;83.00
69189;DHT22;56302;52.322;5.926;2022-08-19T01:33:53;15.50;83.10
69189;DHT22;56302;52.322;5.926;2022-08-19T01:36:32;15.40;83.70
69189;DHT22;56302;52.322;5.926;2022-08-19T01:38:58;15.30;83.30
69189;DHT22;56302;52.322;5.926;2022-08-19T01:41:24;15.30;82.90
69189;DHT22;56302;52.322;5.926;2022-08-19T01:43:50;15.30;83.20
69189;DHT22;56302;52.322;5.926;2022-08-19T01:46:17;15.30;83.00
69189;DHT22;56302;52.322;5.926;2022-08-19T01:48:43;15.30;83.30
69189;DHT22;56302;52.322;5.926;2022-08-19T01:51:10;15.30;83.10
69189;DHT22;56302;52.322;5.926;2022-08-19T01:53:36;15.30;83.10
69189;DHT22;56302;52.322;5.926;2022-08-19T01:56:04;15.20;82.80
69189;DHT22;56302;52.322;5.926;2022-08-19T01:58:38;15.20;83.20
69189;DHT22;56302;52.322;5.926;2022-08-19T02:01:07;15.20;83.00
69189;DHT22;56302;52.322;5.926;2022-08-19T02:03:33;15.20;83.30
69189;DHT22;56302;52.322;5.926;2022-08-19T02:06:00;15.20;83.30
69189;DHT22;56302;52.322;5.926;2022-08-19T02:08:29;15.10;83.50
69189;DHT22;56302;52.322;5.926;2022-08-19T02:10:55;15.10;83.40
69189;DHT22;56302;52.322;5.926;2022-08-19T02:13:21;15.10;83.60
69189;DHT22;56302;52.322;5.926;2022-08-19T02:15:46;15.00;83.60
69189;DHT22;56302;52.322;5.926;2022-08-19T02:18:12;15.00;83.50
69189;DHT22;56302;52.322;5.926;2022-08-19T02:20:40;15.00;83.80
69189;DHT22;56302;52.322;5.926;2022-08-19T02:23:06;14.90;83.80
69189;DHT22;56302;52.322;5.926;2022-08-19T02:25:32;14.90;83.60
69189;DHT22;56302;52.322;5.926;2022-08-19T02:27:58;14.90;83.80
69189;DHT22;56302;52.322;5.926;2022-08-19T02:30:24;14.90;83.70
69189;DHT22;56302;52.322;5.926;2022-08-19T02:32:50;14.90;83.90
69189;DHT22;56302;52.322;5.926;2022-08-19T02:35:16;14.80;83.60
69189;DHT22;56302;52.322;5.926;2022-08-19T02:37:43;14.70;84.60
69189;DHT22;56302;52.322;5.926;2022-08-19T02:40:29;14.70;85.40
69189;DHT22;56302;52.322;5.926;2022-08-19T02:42:59;14.60;86.30
69189;DHT22;56302;52.322;5.926;2022-08-19T02:45:24;14.50;86.30
69189;DHT22;56302;52.322;5.926;2022-08-19T02:47:50;14.60;85.00
69189;DHT22;56302;52.322;5.926;2022-08-19T02:50:16;14.60;84.70
69189;DHT22;56302;52.322;5.926;2022-08-19T02:52:41;14.60;84.60
69189;DHT22;56302;52.322;5.926;2022-08-19T02:55:07;14.60;84.70
69189;DHT22;56302;52.322;5.926;2022-08-19T02:57:33;14.60;84.60
69189;DHT22;56302;52.322;5.926;2022-08-19T02:59:59;14.60;84.40
69189;DHT22;56302;52.322;5.926;2022-08-19T03:02:25;14.60;84.40
69189;DHT22;56302;52.322;5.926;2022-08-19T03:04:50;14.60;85.10
69189;DHT22;56302;52.322;5.926;2022-08-19T03:07:17;14.60;85.40
69189;DHT22;56302;52.322;5.926;2022-08-19T03:09:44;14.60;85.80
69189;DHT22;56302;52.322;5.926;2022-08-19T03:12:09;14.60;85.60
69189;DHT22;56302;52.322;5.926;2022-08-19T03:14:36;14.60;85.70
69189;DHT22;56302;52.322;5.926;2022-08-19T03:17:02;14.60;85.30
69189;DHT22;56302;52.322;5.926;2022-08-19T03:19:29;14.50;85.10
69189;DHT22;56302;52.322;5.926;2022-08-19T03:21:56;14.50;84.70
69189;DHT22;56302;52.322;5.926;2022-08-19T03:24:23;14.50;84.80
69189;DHT22;56302;52.322;5.926;2022-08-19T03:26:51;14.50;84.90
69189;DHT22;56302;52.322;5.926;2022-08-19T03:29:17;14.40;85.20
69189;DHT22;56302;52.322;5.926;2022-08-19T03:31:43;14.40;85.60
69189;DHT22;56302;52.322;5.926;2022-08-19T03:34:30;14.00;87.80
69189;DHT22;56302;52.322;5.926;2022-08-19T03:36:59;14.10;86.60
69189;DHT22;56302;52.322;5.926;2022-08-19T03:39:26;14.20;86.70
69189;DHT22;56302;52.322;5.926;2022-08-19T03:41:53;14.00;87.30
69189;DHT22;56302;52.322;5.926;2022-08-19T03:44:22;14.00;87.40
69189;DHT22;56302;52.322;5.926;2022-08-19T03:46:53;14.00;87.40
69189;DHT22;56302;52.322;5.926;2022-08-19T03:49:21;14.10;86.70
69189;DHT22;56302;52.322;5.926;2022-08-19T03:51:48;14.20;86.40
69189;DHT22;56302;52.322;5.926;2022-08-19T03:54:19;14.20;86.20
69189;DHT22;56302;52.322;5.926;2022-08-19T03:56:47;14.30;86.40
69189;DHT22;56302;52.322;5.926;2022-08-19T03:59:16;14.30;86.20
69189;DHT22;56302;52.322;5.926;2022-08-19T04:01:42;14.20;87.80
69189;DHT22;56302;52.322;5.926;2022-08-19T04:04:08;14.00;89.40
69189;DHT22;56302;52.322;5.926;2022-08-19T04:06:36;14.10;88.50
69189;DHT22;56302;52.322;5.926;2022-08-19T04:09:05;14.20;87.10
69189;DHT22;56302;52.322;5.926;2022-08-19T04:11:34;14.20;86.50
69189;DHT22;56302;52.322;5.926;2022-08-19T04:14:00;14.20;86.50
69189;DHT22;56302;52.322;5.926;2022-08-19T04:16:28;14.20;86.30
69189;DHT22;56302;52.322;5.926;2022-08-19T04:18:54;14.10;86.90
69189;DHT22;56302;52.322;5.926;2022-08-19T04:21:23;14.10;87.10
69189;DHT22;56302;52.322;5.926;2022-08-19T04:23:50;14.00;87.40
69189;DHT22;56302;52.322;5.926;2022-08-19T04:26:18;13.90;87.90
69189;DHT22;56302;52.322;5.926;2022-08-19T04:28:44;14.00;87.80
69189;DHT22;56302;52.322;5.926;2022-08-19T04:31:18;14.00;86.70
69189;DHT22;56302;52.322;5.926;2022-08-19T04:33:44;14.00;86.30
69189;DHT22;56302;52.322;5.926;2022-08-19T04:36:18;14.00;86.50
69189;DHT22;56302;52.322;5.926;2022-08-19T04:38:47;14.00;86.00
69189;DHT22;56302;52.322;5.926;2022-08-19T04:41:13;14.10;86.10
69189;DHT22;56302;52.322;5.926;2022-08-19T04:43:57;14.00;86.50
69189;DHT22;56302;52.322;5.926;2022-08-19T04:46:22;13.80;88.30
69189;DHT22;56302;52.322;5.926;2022-08-19T04:48:48;13.60;89.70
69189;DHT22;56302;52.322;5.926;2022-08-19T04:51:14;13.60;89.40
69189;DHT22;56302;52.322;5.926;2022-08-19T04:53:41;13.70;88.20
69189;DHT22;56302;52.322;5.926;2022-08-19T04:56:11;13.80;87.60
69189;DHT22;56302;52.322;5.926;2022-08-19T04:58:39;13.90;87.10
69189;DHT22;56302;52.322;5.926;2022-08-19T05:01:05;13.90;86.90
69189;DHT22;56302;52.322;5.926;2022-08-19T05:03:31;13.90;87.00
69189;DHT22;56302;52.322;5.926;2022-08-19T05:06:04;13.90;87.30
69189;DHT22;56302;52.322;5.926;2022-08-19T05:08:31;13.80;87.10
69189;DHT22;56302;52.322;5.926;2022-08-19T05:10:57;13.90;87.30
69189;DHT22;56302;52.322;5.926;2022-08-19T05:13:22;13.80;87.70
69189;DHT22;56302;52.322;5.926;2022-08-19T05:15:58;13.90;87.40
69189;DHT22;56302;52.322;5.926;2022-08-19T05:18:24;13.90;87.20
69189;DHT22;56302;52.322;5.926;2022-08-19T05:21:11;13.90;87.10
69189;DHT22;56302;52.322;5.926;2022-08-19T05:23:55;13.90;87.40
69189;DHT22;56302;52.322;5.926;2022-08-19T05:26:21;13.80;88.70
69189;DHT22;56302;52.322;5.926;2022-08-19T05:28:47;13.90;88.30
69189;DHT22;56302;52.322;5.926;2022-08-19T05:31:12;14.00;88.00
69189;DHT22;56302;52.322;5.926;2022-08-19T05:33:39;14.00;88.30
69189;DHT22;56302;52.322;5.926;2022-08-19T05:36:05;14.00;88.10
69189;DHT22;56302;52.322;5.926;2022-08-19T05:38:33;14.10;88.50
69189;DHT22;56302;52.322;5.926;2022-08-19T05:40:59;14.20;88.60
69189;DHT22;56302;52.322;5.926;2022-08-19T05:43:24;14.20;88.40
69189;DHT22;56302;52.322;5.926;2022-08-19T05:45:50;14.30;88.20
69189;DHT22;56302;52.322;5.926;2022-08-19T05:48:16;14.30;88.30
69189;DHT22;56302;52.322;5.926;2022-08-19T05:50:45;14.40;88.30
69189;DHT22;56302;52.322;5.926;2022-08-19T05:53:12;14.40;88.20
69189;DHT22;56302;52.322;5.926;2022-08-19T05:55:38;14.40;88.90
69189;DHT22;56302;52.322;5.926;2022-08-19T05:58:04;14.50;88.80
69189;DHT22;56302;52.322;5.926;2022-08-19T06:00:33;14.60;90.00
69189;DHT22;56302;52.322;5.926;2022-08-19T06:02:58;14.60;89.20
69189;DHT22;56302;52.322;5.926;2022-08-19T06:05:31;14.70;89.10
69189;DHT22;56302;52.322;5.926;2022-08-19T06:07:57;14.80;89.00
69189;DHT22;56302;52.322;5.926;2022-08-19T06:10:24;14.90;88.90
69189;DHT22;56302;52.322;5.926;2022-08-19T06:12:50;15.00;89.60
69189;DHT22;56302;52.322;5.926;2022-08-19T06:15:15;15.00;89.50
69189;DHT22;56302;52.322;5.926;2022-08-19T06:17:42;15.10;89.20
69189;DHT22;56302;52.322;5.926;2022-08-19T06:20:13;15.30;89.60
69189;DHT22;56302;52.322;5.926;2022-08-19T06:22:40;15.40;90.80
69189;DHT22;56302;52.322;5.926;2022-08-19T06:25:06;15.60;91.50
69189;DHT22;56302;52.322;5.926;2022-08-19T06:27:32;15.70;91.90
69189;DHT22;56302;52.322;5.926;2022-08-19T06:29:58;15.90;93.40
69189;DHT22;56302;52.322;5.926;2022-08-19T06:32:24;16.10;94.10
69189;DHT22;56302;52.322;5.926;2022-08-19T06:34:49;16.30;94.70
69189;DHT22;56302;52.322;5.926;2022-08-19T06:37:15;16.50;95.40
69189;DHT22;56302;52.322;5.926;2022-08-19T06:39:42;16.70;95.70
69189;DHT22;56302;52.322;5.926;2022-08-19T06:42:08;17.10;96.10
69189;DHT22;56302;52.322;5.926;2022-08-19T06:44:38;17.40;96.20
69189;DHT22;56302;52.322;5.926;2022-08-19T06:47:07;17.80;96.00
69189;DHT22;56302;52.322;5.926;2022-08-19T06:49:34;18.20;95.40
69189;DHT22;56302;52.322;5.926;2022-08-19T06:52:00;18.70;94.20
69189;DHT22;56302;52.322;5.926;2022-08-19T06:54:26;19.20;92.30
69189;DHT22;56302;52.322;5.926;2022-08-19T06:56:55;19.60;90.30
69189;DHT22;56302;52.322;5.926;2022-08-19T06:59:23;20.10;88.20
69189;DHT22;56302;52.322;5.926;2022-08-19T07:01:54;20.50;85.90
69189;DHT22;56302;52.322;5.926;2022-08-19T07:04:26;20.80;84.70
69189;DHT22;56302;52.322;5.926;2022-08-19T07:07:19;21.10;82.50
69189;DHT22;56302;52.322;5.926;2022-08-19T07:09:45;21.30;80.70
69189;DHT22;56302;52.322;5.926;2022-08-19T07:12:13;21.40;80.40
69189;DHT22;56302;52.322;5.926;2022-08-19T07:14:41;21.70;79.70
69189;DHT22;56302;52.322;5.926;2022-08-19T07:17:09;22.00;79.10
69189;DHT22;56302;52.322;5.926;2022-08-19T07:19:36;22.30;76.90
69189;DHT22;56302;52.322;5.926;2022-08-19T07:22:04;22.10;77.30
69189;DHT22;56302;52.322;5.926;2022-08-19T07:24:31;22.10;77.60
69189;DHT22;56302;52.322;5.926;2022-08-19T07:26:59;22.40;75.90
69189;DHT22;56302;52.322;5.926;2022-08-19T07:29:26;22.20;75.60
69189;DHT22;56302;52.322;5.926;2022-08-19T07:31:52;22.40;76.20
69189;DHT22;56302;52.322;5.926;2022-08-19T07:34:21;22.50;75.50
69189;DHT22;56302;52.322;5.926;2022-08-19T07:36:47;22.60;75.40
69189;DHT22;56302;52.322;5.926;2022-08-19T07:39:18;22.80;73.30
69189;DHT22;56302;52.322;5.926;2022-08-19T07:41:45;23.00;74.80
69189;DHT22;56302;52.322;5.926;2022-08-19T07:44:12;23.10;72.60
69189;DHT22;56302;52.322;5.926;2022-08-19T07:46:41;23.20;73.80
69189;DHT22;56302;52.322;5.926;2022-08-19T07:49:10;23.40;73.20
69189;DHT22;56302;52.322;5.926;2022-08-19T07:51:52;23.90;70.50
69189;DHT22;56302;52.322;5.926;2022-08-19T07:54:18;24.10;70.70
69189;DHT22;56302;52.322;5.926;2022-08-19T07:56:45;24.50;68.00
69189;DHT22;56302;52.322;5.926;2022-08-19T07:59:11;24.30;67.90
69189;DHT22;56302;52.322;5.926;2022-08-19T08:01:37;23.70;69.10
69189;DHT22;56302;52.322;5.926;2022-08-19T08:04:05;23.40;71.20
69189;DHT22;56302;52.322;5.926;2022-08-19T08:06:50;23.40;71.30
69189;DHT22;56302;52.322;5.926;2022-08-19T08:09:37;23.70;71.10
69189;DHT22;56302;52.322;5.926;2022-08-19T08:12:06;24.30;68.80
69189;DHT22;56302;52.322;5.926;2022-08-19T08:14:36;24.30;68.80
69189;DHT22;56302;52.322;5.926;2022-08-19T08:17:04;24.50;69.60
69189;DHT22;56302;52.322;5.926;2022-08-19T08:19:30;24.40;67.20
69189;DHT22;56302;52.322;5.926;2022-08-19T08:21:58;24.40;68.60
69189;DHT22;56302;52.322;5.926;2022-08-19T08:24:26;24.70;67.90
69189;DHT22;56302;52.322;5.926;2022-08-19T08:26:52;25.10;66.90
69189;DHT22;56302;52.322;5.926;2022-08-19T08:29:17;24.30;65.10
69189;DHT22;56302;52.322;5.926;2022-08-19T08:31:45;24.60;67.70
69189;DHT22;56302;52.322;5.926;2022-08-19T08:34:13;25.10;65.80
69189;DHT22;56302;52.322;5.926;2022-08-19T08:36:44;25.30;65.40
69189;DHT22;56302;52.322;5.926;2022-08-19T08:39:18;25.60;64.00
69189;DHT22;56302;52.322;5.926;2022-08-19T08:41:47;25.70;61.90
69189;DHT22;56302;52.322;5.926;2022-08-19T08:47:06;25.60;62.80
69189;DHT22;56302;52.322;5.926;2022-08-19T08:49:50;25.70;60.30
69189;DHT22;56302;52.322;5.926;2022-08-19T08:52:28;25.50;61.80
69189;DHT22;56302;52.322;5.926;2022-08-19T08:54:55;25.70;59.40
69189;DHT22;56302;52.322;5.926;2022-08-19T08:57:32;26.10;61.80
69189;DHT22;56302;52.322;5.926;2022-08-19T09:00:05;25.70;61.70
69189;DHT22;56302;52.322;5.926;2022-08-19T09:02:32;26.00;57.60
69189;DHT22;56302;52.322;5.926;2022-08-19T09:04:57;26.20;58.60
69189;DHT22;56302;52.322;5.926;2022-08-19T09:10:04;26.00;56.20
69189;DHT22;56302;52.322;5.926;2022-08-19T09:15:10;26.30;60.20
69189;DHT22;56302;52.322;5.926;2022-08-19T09:17:37;26.50;58.40
69189;DHT22;56302;52.322;5.926;2022-08-19T09:22:35;26.80;55.20
69189;DHT22;56302;52.322;5.926;2022-08-19T09:25:01;26.80;54.40
69189;DHT22;56302;52.322;5.926;2022-08-19T09:27:28;26.70;53.50
69189;DHT22;56302;52.322;5.926;2022-08-19T09:29:54;26.20;52.80
69189;DHT22;56302;52.322;5.926;2022-08-19T09:32:20;26.30;56.40
69189;DHT22;56302;52.322;5.926;2022-08-19T09:34:46;26.40;56.20
69189;DHT22;56302;52.322;5.926;2022-08-19T09:37:12;26.70;55.00
69189;DHT22;56302;52.322;5.926;2022-08-19T09:39:38;26.70;55.70
69189;DHT22;56302;52.322;5.926;2022-08-19T09:42:06;26.90;56.30
69189;DHT22;56302;52.322;5.926;2022-08-19T09:44:37;26.90;53.70
69189;DHT22;56302;52.322;5.926;2022-08-19T09:47:03;26.80;54.70
69189;DHT22;56302;52.322;5.926;2022-08-19T09:49:29;27.10;52.50
69189;DHT22;56302;52.322;5.926;2022-08-19T09:51:54;27.20;52.90
69189;DHT22;56302;52.322;5.926;2022-08-19T09:54:21;26.90;52.80
69189;DHT22;56302;52.322;5.926;2022-08-19T09:56:48;27.10;54.50
69189;DHT22;56302;52.322;5.926;2022-08-19T09:59:14;26.50;53.10
69189;DHT22;56302;52.322;5.926;2022-08-19T10:01:39;26.70;54.20
69189;DHT22;56302;52.322;5.926;2022-08-19T10:04:05;27.20;55.20
69189;DHT22;56302;52.322;5.926;2022-08-19T10:06:35;27.40;53.20
69189;DHT22;56302;52.322;5.926;2022-08-19T10:09:02;27.30;53.40
69189;DHT22;56302;52.322;5.926;2022-08-19T10:11:29;26.90;52.60
69189;DHT22;56302;52.322;5.926;2022-08-19T10:13:55;26.80;53.90
69189;DHT22;56302;52.322;5.926;2022-08-19T10:16:22;27.20;51.80
69189;DHT22;56302;52.322;5.926;2022-08-19T10:18:48;27.30;51.10
69189;DHT22;56302;52.322;5.926;2022-08-19T10:21:26;27.30;51.50
69189;DHT22;56302;52.322;5.926;2022-08-19T10:23:54;27.60;50.20
69189;DHT22;56302;52.322;5.926;2022-08-19T10:26:26;27.60;49.30
69189;DHT22;56302;52.322;5.926;2022-08-19T10:28:53;27.70;50.20
69189;DHT22;56302;52.322;5.926;2022-08-19T10:31:22;28.00;49.20
69189;DHT22;56302;52.322;5.926;2022-08-19T10:33:48;28.00;49.40
69189;DHT22;56302;52.322;5.926;2022-08-19T10:36:19;27.70;47.70
69189;DHT22;56302;52.322;5.926;2022-08-19T10:38:48;27.00;52.80
69189;DHT22;56302;52.322;5.926;2022-08-19T10:43:42;27.80;51.80
69189;DHT22;56302;52.322;5.926;2022-08-19T10:46:14;27.60;52.20
69189;DHT22;56302;52.322;5.926;2022-08-19T10:48:41;27.90;52.50
69189;DHT22;56302;52.322;5.926;2022-08-19T10:51:07;27.70;49.10
69189;DHT22;56302;52.322;5.926;2022-08-19T10:53:51;27.20;53.20
69189;DHT22;56302;52.322;5.926;2022-08-19T10:56:17;26.80;54.30
69189;DHT22;56302;52.322;5.926;2022-08-19T10:59:02;27.20;53.90
69189;DHT22;56302;52.322;5.926;2022-08-19T11:01:28;27.80;51.80
69189;DHT22;56302;52.322;5.926;2022-08-19T11:03:55;28.20;52.90
69189;DHT22;56302;52.322;5.926;2022-08-19T11:06:23;28.40;51.10
69189;DHT22;56302;52.322;5.926;2022-08-19T11:08:50;28.40;50.40
69189;DHT22;56302;52.322;5.926;2022-08-19T11:11:16;28.30;51.40
69189;DHT22;56302;52.322;5.926;2022-08-19T11:13:42;28.10;51.70
69189;DHT22;56302;52.322;5.926;2022-08-19T11:16:11;28.10;51.70
69189;DHT22;56302;52.322;5.926;2022-08-19T11:18:40;28.30;50.40
69189;DHT22;56302;52.322;5.926;2022-08-19T11:21:20;28.10;49.10
69189;DHT22;56302;52.322;5.926;2022-08-19T11:23:48;27.40;50.90
69189;DHT22;56302;52.322;5.926;2022-08-19T11:26:16;27.20;51.60
69189;DHT22;56302;52.322;5.926;2022-08-19T11:28:42;27.30;52.80
69189;DHT22;56302;52.322;5.926;2022-08-19T11:31:19;27.40;53.90
69189;DHT22;56302;52.322;5.926;2022-08-19T11:33:45;27.60;52.80
69189;DHT22;56302;52.322;5.926;2022-08-19T11:36:12;27.90;52.50
69189;DHT22;56302;52.322;5.926;2022-08-19T11:38:38;27.80;50.40
69189;DHT22;56302;52.322;5.926;2022-08-19T11:41:06;27.70;51.50
69189;DHT22;56302;52.322;5.926;2022-08-19T11:43:36;28.00;51.60
69189;DHT22;56302;52.322;5.926;2022-08-19T11:46:06;27.90;51.00
69189;DHT22;56302;52.322;5.926;2022-08-19T11:48:32;27.80;52.00
69189;DHT22;56302;52.322;5.926;2022-08-19T11:50:58;27.70;53.20
69189;DHT22;56302;52.322;5.926;2022-08-19T11:53:23;27.80;52.00
69189;DHT22;56302;52.322;5.926;2022-08-19T11:55:52;27.40;52.30
69189;DHT22;56302;52.322;5.926;2022-08-19T11:58:21;27.50;52.40
69189;DHT22;56302;52.322;5.926;2022-08-19T12:00:47;27.50;53.20
69189;DHT22;56302;52.322;5.926;2022-08-19T12:03:13;27.20;53.00
69189;DHT22;56302;52.322;5.926;2022-08-19T12:05:41;26.70;54.20
69189;DHT22;56302;52.322;5.926;2022-08-19T12:08:07;27.30;52.40
69189;DHT22;56302;52.322;5.926;2022-08-19T12:10:34;28.00;50.70
69189;DHT22;56302;52.322;5.926;2022-08-19T12:13:00;28.40;50.70
69189;DHT22;56302;52.322;5.926;2022-08-19T12:15:27;28.40;50.10
69189;DHT22;56302;52.322;5.926;2022-08-19T12:17:54;28.00;49.80
69189;DHT22;56302;52.322;5.926;2022-08-19T12:20:22;28.10;50.90
69189;DHT22;56302;52.322;5.926;2022-08-19T12:22:48;27.80;49.90
69189;DHT22;56302;52.322;5.926;2022-08-19T12:25:14;27.20;52.00
69189;DHT22;56302;52.322;5.926;2022-08-19T12:27:40;27.30;52.70
69189;DHT22;56302;52.322;5.926;2022-08-19T12:30:08;27.30;51.20
69189;DHT22;56302;52.322;5.926;2022-08-19T12:32:34;27.20;49.90
69189;DHT22;56302;52.322;5.926;2022-08-19T12:35:00;27.00;51.30
69189;DHT22;56302;52.322;5.926;2022-08-19T12:37:26;27.20;51.80
69189;DHT22;56302;52.322;5.926;2022-08-19T12:39:52;27.20;51.80
69189;DHT22;56302;52.322;5.926;2022-08-19T12:42:18;27.20;51.10
69189;DHT22;56302;52.322;5.926;2022-08-19T12:44:44;27.00;51.80
69189;DHT22;56302;52.322;5.926;2022-08-19T12:47:11;26.90;53.20
69189;DHT22;56302;52.322;5.926;2022-08-19T12:49:38;26.80;52.00
69189;DHT22;56302;52.322;5.926;2022-08-19T12:52:05;26.80;53.40
69189;DHT22;56302;52.322;5.926;2022-08-19T12:54:31;26.70;53.70
69189;DHT22;56302;52.322;5.926;2022-08-19T12:56:57;26.80;54.20
69189;DHT22;56302;52.322;5.926;2022-08-19T12:59:24;26.80;53.20
69189;DHT22;56302;52.322;5.926;2022-08-19T13:01:50;27.00;52.80
69189;DHT22;56302;52.322;5.926;2022-08-19T13:04:16;26.90;53.30
69189;DHT22;56302;52.322;5.926;2022-08-19T13:06:42;26.80;53.70
69189;DHT22;56302;52.322;5.926;2022-08-19T13:09:08;26.50;54.30
69189;DHT22;56302;52.322;5.926;2022-08-19T13:11:34;26.20;55.80
69189;DHT22;56302;52.322;5.926;2022-08-19T13:14:01;26.30;56.30
69189;DHT22;56302;52.322;5.926;2022-08-19T13:16:27;26.40;54.60
69189;DHT22;56302;52.322;5.926;2022-08-19T13:18:54;26.20;54.50
69189;DHT22;56302;52.322;5.926;2022-08-19T13:21:22;26.00;56.60
69189;DHT22;56302;52.322;5.926;2022-08-19T13:23:49;26.20;55.50
69189;DHT22;56302;52.322;5.926;2022-08-19T13:26:15;26.20;55.70
69189;DHT22;56302;52.322;5.926;2022-08-19T13:28:42;26.20;56.40
69189;DHT22;56302;52.322;5.926;2022-08-19T13:31:28;26.20;56.90
69189;DHT22;56302;52.322;5.926;2022-08-19T13:34:13;26.20;56.70
69189;DHT22;56302;52.322;5.926;2022-08-19T13:36:38;26.10;56.90
69189;DHT22;56302;52.322;5.926;2022-08-19T13:39:06;26.00;57.10
69189;DHT22;56302;52.322;5.926;2022-08-19T13:41:33;25.90;58.60
69189;DHT22;56302;52.322;5.926;2022-08-19T13:43:59;25.80;59.30
69189;DHT22;56302;52.322;5.926;2022-08-19T13:46:24;25.40;60.90
69189;DHT22;56302;52.322;5.926;2022-08-19T13:48:50;25.20;62.40
69189;DHT22;56302;52.322;5.926;2022-08-19T13:51:17;25.00;63.10
69189;DHT22;56302;52.322;5.926;2022-08-19T13:53:44;25.00;64.00
69189;DHT22;56302;52.322;5.926;2022-08-19T13:56:12;24.70;64.80
69189;DHT22;56302;52.322;5.926;2022-08-19T13:58:39;24.50;66.10
69189;DHT22;56302;52.322;5.926;2022-08-19T14:01:05;24.30;67.30
69189;DHT22;56302;52.322;5.926;2022-08-19T14:03:32;24.10;68.50
69189;DHT22;56302;52.322;5.926;2022-08-19T14:05:58;24.20;68.90
69189;DHT22;56302;52.322;5.926;2022-08-19T14:08:25;24.30;69.10
69189;DHT22;56302;52.322;5.926;2022-08-19T14:10:56;24.30;69.40
69189;DHT22;56302;52.322;5.926;2022-08-19T14:13:23;24.30;69.60
69189;DHT22;56302;52.322;5.926;2022-08-19T14:15:49;24.30;70.20
69189;DHT22;56302;52.322;5.926;2022-08-19T14:18:17;24.30;70.60
69189;DHT22;56302;52.322;5.926;2022-08-19T14:20:43;24.30;71.30
69189;DHT22;56302;52.322;5.926;2022-08-19T14:23:08;24.20;72.10
69189;DHT22;56302;52.322;5.926;2022-08-19T14:25:35;24.40;72.30
69189;DHT22;56302;52.322;5.926;2022-08-19T14:28:01;24.30;72.10
69189;DHT22;56302;52.322;5.926;2022-08-19T14:30:31;24.20;72.90
69189;DHT22;56302;52.322;5.926;2022-08-19T14:32:58;24.40;72.20
69189;DHT22;56302;52.322;5.926;2022-08-19T14:35:29;24.50;71.50
69189;DHT22;56302;52.322;5.926;2022-08-19T14:37:56;24.50;71.50
69189;DHT22;56302;52.322;5.926;2022-08-19T14:40:25;24.50;71.80
69189;DHT22;56302;52.322;5.926;2022-08-19T14:43:01;24.40;71.50
69189;DHT22;56302;52.322;5.926;2022-08-19T14:45:34;24.40;71.60
69189;DHT22;56302;52.322;5.926;2022-08-19T14:47:59;24.30;71.10
69189;DHT22;56302;52.322;5.926;2022-08-19T14:50:26;24.30;70.50
69189;DHT22;56302;52.322;5.926;2022-08-19T14:53:01;24.20;71.00
69189;DHT22;56302;52.322;5.926;2022-08-19T14:55:29;24.20;71.10
69189;DHT22;56302;52.322;5.926;2022-08-19T14:57:55;24.10;71.00
69189;DHT22;56302;52.322;5.926;2022-08-19T15:00:21;24.10;71.40
69189;DHT22;56302;52.322;5.926;2022-08-19T15:02:48;23.80;72.20
69189;DHT22;56302;52.322;5.926;2022-08-19T15:05:14;23.90;72.10
69189;DHT22;56302;52.322;5.926;2022-08-19T15:07:40;24.00;71.80
69189;DHT22;56302;52.322;5.926;2022-08-19T15:10:07;24.00;71.80
69189;DHT22;56302;52.322;5.926;2022-08-19T15:12:37;24.00;71.80
69189;DHT22;56302;52.322;5.926;2022-08-19T15:15:15;23.90;71.90
69189;DHT22;56302;52.322;5.926;2022-08-19T15:17:43;23.90;72.10
69189;DHT22;56302;52.322;5.926;2022-08-19T15:20:10;23.90;72.20
69189;DHT22;56302;52.322;5.926;2022-08-19T15:22:38;23.80;72.40
69189;DHT22;56302;52.322;5.926;2022-08-19T15:25:06;23.70;72.40
69189;DHT22;56302;52.322;5.926;2022-08-19T15:27:32;23.70;72.30
69189;DHT22;56302;52.322;5.926;2022-08-19T15:29:58;23.70;72.20
69189;DHT22;56302;52.322;5.926;2022-08-19T15:32:24;23.70;72.40
69189;DHT22;56302;52.322;5.926;2022-08-19T15:34:51;23.70;72.90
69189;DHT22;56302;52.322;5.926;2022-08-19T15:37:17;23.80;73.40
69189;DHT22;56302;52.322;5.926;2022-08-19T15:39:42;23.70;73.20
69189;DHT22;56302;52.322;5.926;2022-08-19T15:42:08;23.70;73.60
69189;DHT22;56302;52.322;5.926;2022-08-19T15:44:33;23.60;74.10
69189;DHT22;56302;52.322;5.926;2022-08-19T15:46:59;23.70;74.30